Time;durP1;ratioP1;P1;durP2;ratioP2;P2;SDS_P1;SDS_P2;PMS_P1;PMS_P2;Temp;Humidity;BMP_temperature;BMP_pressure;BME280_temperature;BME280_humidity;BME280_pressure;Samples;Min_cycle;Max_cycle;Signal;HPM_P1;HPM_P2
2022/12/12 00:02:20;;;;;;;37.57;22.03;;;2.50;73.50;;;5.50;54.41;101088.81;5057240;28;20241;-56
2022/12/12 00:04:47;;;;;;;37.10;20.03;;;2.60;73.40;;;5.57;54.42;101087.31;5056435;28;20195;-56
2022/12/12 00:07:14;;;;;;;37.97;21.13;;;2.70;73.30;;;5.65;53.82;101089.28;5056445;28;20191;-55
2022/12/12 00:09:41;;;;;;;37.43;20.67;;;2.70;72.70;;;5.68;52.97;101100.25;5055718;28;20275;-56
2022/12/12 00:12:08;;;;;;;35.53;19.57;;;2.80;71.80;;;5.64;53.55;101095.44;5055719;28;20261;-54
2022/12/12 00:14:35;;;;;;;35.43;19.67;;;2.70;71.30;;;5.59;53.96;101098.47;5054695;28;20283;-54
2022/12/12 00:17:03;;;;;;;35.70;20.00;;;2.70;72.00;;;5.58;53.12;101107.25;5054746;28;20547;-52
2022/12/12 00:19:30;;;;;;;40.63;20.07;;;2.70;72.20;;;5.60;53.17;101107.94;5054767;28;20278;-52
2022/12/12 00:21:58;;;;;;;36.83;19.27;;;2.70;72.50;;;5.66;53.25;101104.00;5054448;28;20194;-53
2022/12/12 00:24:25;;;;;;;34.73;19.23;;;2.80;72.50;;;5.65;53.70;101103.16;5053158;28;20267;-53
2022/12/12 00:26:52;;;;;;;40.37;21.27;;;2.80;72.10;;;5.64;52.44;101090.22;5053546;28;20511;-54
2022/12/12 00:29:19;;;;;;;32.33;19.70;;;2.80;71.60;;;5.60;53.24;101102.72;5053286;28;20268;-52
2022/12/12 00:31:46;;;;;;;40.27;21.00;;;2.80;70.80;;;5.53;52.14;101106.00;5053326;28;20532;-54
2022/12/12 00:34:14;;;;;;;34.77;19.43;;;2.70;70.10;;;5.42;52.32;101107.75;5052758;28;20222;-53
2022/12/12 00:36:41;;;;;;;38.43;22.43;;;2.60;69.80;;;5.31;51.68;101110.47;5052910;28;20201;-53
2022/12/12 00:39:08;;;;;;;41.90;22.00;;;2.50;70.00;;;5.20;51.70;101105.34;5052342;28;20333;-52
2022/12/12 00:41:44;;;;;;;35.80;21.77;;;2.40;70.20;;;5.02;52.43;101109.50;5053515;28;20191;-52
2022/12/12 00:44:11;;;;;;;41.40;22.30;;;2.30;70.30;;;4.89;53.69;101106.28;5053193;28;20187;-54
2022/12/12 00:46:39;;;;;;;40.43;21.50;;;2.20;70.90;;;4.82;53.66;101104.31;5052283;28;20228;-53
2022/12/12 00:49:06;;;;;;;40.33;22.53;;;2.10;72.20;;;4.79;53.76;101116.66;5053199;28;20625;-54
2022/12/12 00:51:34;;;;;;;36.37;20.43;;;2.00;72.10;;;4.79;54.11;101115.81;5053519;28;20191;-54
2022/12/12 00:54:01;;;;;;;35.27;21.10;;;2.00;72.10;;;4.76;53.24;101116.06;5056973;28;20222;-51
2022/12/12 00:56:29;;;;;;;35.93;21.40;;;2.00;72.20;;;4.72;53.04;101119.91;5056708;28;20251;-51
2022/12/12 00:58:57;;;;;;;37.27;20.77;;;1.90;72.00;;;4.68;53.98;101123.72;5056094;28;20245;-52
2022/12/12 01:01:28;;;;;;;39.63;21.73;;;1.90;72.00;;;4.66;54.04;101121.22;5056699;28;20252;-54
2022/12/12 01:03:56;;;;;;;40.00;21.23;;;1.80;72.90;;;4.67;54.60;101122.91;5056751;28;20331;-54
2022/12/12 01:06:23;;;;;;;36.83;20.93;;;1.80;73.20;;;4.69;54.68;101125.38;5056668;28;20245;-52
2022/12/12 01:08:52;;;;;;;43.03;22.93;;;1.80;72.90;;;4.67;54.35;101122.91;5056540;28;20280;-53
2022/12/12 01:11:22;;;;;;;41.60;23.70;;;1.80;72.90;;;4.63;54.22;101124.13;5056377;28;20521;-53
2022/12/12 01:13:53;;;;;;;41.83;21.97;;;1.80;72.60;;;4.60;54.21;101121.75;5055959;28;20684;-52
2022/12/12 01:16:21;;;;;;;38.57;22.83;;;1.80;72.90;;;4.59;54.65;101122.69;5056294;28;20248;-53
2022/12/12 01:18:49;;;;;;;41.73;20.97;;;1.80;73.20;;;4.60;53.77;101126.13;5056081;28;20217;-53
2022/12/12 01:21:18;;;;;;;31.83;19.70;;;1.80;72.70;;;4.58;54.20;101133.25;5056704;28;20260;-54
2022/12/12 01:23:47;;;;;;;41.53;21.20;;;1.70;72.10;;;4.53;54.01;101135.41;5056076;28;20191;-52
2022/12/12 01:26:19;;;;;;;38.40;21.97;;;1.70;71.90;;;4.44;53.78;101134.41;5056545;28;20201;-53
2022/12/12 01:28:46;;;;;;;33.53;21.23;;;1.60;72.00;;;4.38;54.02;101132.28;5055591;28;20531;-54
2022/12/12 01:31:14;;;;;;;40.30;22.47;;;1.50;73.20;;;4.34;54.48;101137.84;5056232;28;20555;-54
2022/12/12 01:33:44;;;;;;;38.17;21.30;;;1.50;72.60;;;4.28;54.38;101138.38;5055830;28;20585;-50
2022/12/12 01:36:15;;;;;;;37.27;21.47;;;1.40;72.90;;;4.25;54.04;101142.03;5055910;28;20295;-54
2022/12/12 01:38:43;;;;;;;37.67;22.17;;;1.40;72.70;;;4.22;54.76;101146.66;5055051;28;20219;-52
2022/12/12 01:41:12;;;;;;;41.10;22.97;;;1.40;72.80;;;4.20;55.18;101140.75;5056274;28;20196;-50
2022/12/12 01:43:41;;;;;;;34.33;20.10;;;1.30;73.30;;;4.19;54.50;101144.28;5039061;28;20196;-52
2022/12/12 01:46:45;;;;;;;39.77;21.80;;;1.30;73.20;;;4.09;54.83;101142.44;5037976;28;20188;-53
2022/12/12 01:49:21;;;;;;;40.53;20.63;;;1.30;73.00;;;4.07;54.84;101146.94;5034784;28;20217;-52
2022/12/12 01:51:52;;;;;;;39.87;22.27;;;1.30;73.50;;;4.09;55.05;101137.22;5035978;28;20186;-55
2022/12/12 01:54:26;;;;;;;42.70;21.80;;;1.30;73.80;;;4.09;54.48;101139.00;5035579;28;20679;-53
2022/12/12 01:56:57;;;;;;;37.37;21.33;;;1.30;73.20;;;4.09;54.93;101137.22;5036046;28;20192;-52
2022/12/12 01:59:28;;;;;;;37.77;20.17;;;1.30;72.90;;;4.08;55.07;101133.00;5054984;28;20215;-53
2022/12/12 02:01:56;;;;;;;37.90;22.67;;;1.20;73.00;;;4.05;54.63;101135.84;5055416;28;20539;-50
2022/12/12 02:04:26;;;;;;;37.97;20.10;;;1.20;73.00;;;4.03;54.43;101142.09;5055272;28;20183;-51
2022/12/12 02:06:55;;;;;;;38.60;21.67;;;1.10;72.70;;;3.99;54.95;101140.72;5055689;28;20178;-55
2022/12/12 02:09:24;;;;;;;38.57;22.83;;;1.10;73.30;;;4.00;54.98;101153.59;5055155;28;20226;-54
2022/12/12 02:11:55;;;;;;;42.13;22.40;;;1.10;74.00;;;4.02;54.93;101154.28;5055556;28;20188;-53
2022/12/12 02:14:29;;;;;;;40.20;23.23;;;1.20;73.80;;;4.05;55.49;101156.66;5054946;28;20721;-52
2022/12/12 02:17:21;;;;;;;43.47;22.57;;;1.20;74.00;;;4.09;54.93;101154.63;5055283;28;20678;-55
2022/12/12 02:20:51;;;;;;;38.97;22.37;;;1.30;73.90;;;4.10;55.14;101151.91;5054465;28;20314;-53
2022/12/12 02:23:49;;;;;;;38.07;21.93;;;1.30;73.20;;;4.07;54.23;101148.72;5054978;28;20198;-52
2022/12/12 02:27:11;;;;;;;37.00;21.47;;;1.40;72.70;;;4.00;54.52;101158.81;5054803;28;20542;-53
2022/12/12 02:30:08;;;;;;;39.53;23.10;;;1.30;72.30;;;3.96;54.64;101149.59;5056913;28;20238;-56
2022/12/12 02:33:08;;;;;;;42.77;22.60;;;1.30;73.00;;;3.95;55.12;101154.91;5057911;28;20195;-53
2022/12/12 02:35:50;;;;;;;38.77;22.23;;;1.30;72.90;;;3.89;54.32;101153.63;5056456;28;20211;-52
2022/12/12 02:38:30;;;;;;;37.27;20.93;;;1.20;72.50;;;3.85;55.00;101152.19;5051992;28;20206;-54
2022/12/12 02:41:14;;;;;;;40.37;22.43;;;1.20;73.40;;;3.90;55.84;101157.88;5036181;28;20200;-53
2022/12/12 02:43:55;;;;;;;43.67;23.43;;;1.20;74.60;;;4.00;55.87;101152.75;5036396;28;20254;-52
2022/12/12 02:46:30;;;;;;;38.93;21.57;;;1.30;74.60;;;4.08;55.33;101151.22;5038449;28;20250;-53
2022/12/12 02:49:03;;;;;;;41.47;22.70;;;1.30;74.00;;;4.15;55.65;101154.16;5036317;28;20215;-52
2022/12/12 02:51:33;;;;;;;41.57;23.03;;;1.40;74.00;;;4.18;55.36;101153.91;5036300;28;20196;-55
2022/12/12 02:54:03;;;;;;;41.90;21.57;;;1.40;73.70;;;4.20;55.22;101159.00;5035760;28;20558;-55
2022/12/12 02:56:53;;;;;;;42.63;24.50;;;1.40;73.30;;;4.16;54.93;101157.59;5035508;28;20196;-54
2022/12/12 02:59:26;;;;;;;39.87;22.40;;;1.40;73.00;;;4.14;54.79;101154.28;5037060;28;20693;-53
2022/12/12 03:02:46;;;;;;;34.97;21.47;;;1.40;72.80;;;4.04;54.57;101152.38;5035586;28;20196;-50
2022/12/12 03:08:48;;;;;;;42.83;23.13;;;1.20;72.50;;;3.87;54.52;101160.75;5034039;28;20213;-53
2022/12/12 03:11:36;;;;;;;38.90;22.07;;;1.20;72.70;;;3.82;54.79;101160.28;5034497;28;20182;-52
2022/12/12 03:14:16;;;;;;;42.07;22.70;;;1.10;72.90;;;3.80;55.09;101162.16;5034596;28;20180;-52
2022/12/12 03:16:55;;;;;;;36.97;21.67;;;1.00;72.90;;;3.80;55.23;101156.97;5033879;28;20539;-54
2022/12/12 03:19:28;;;;;;;41.53;22.77;;;1.00;74.00;;;3.84;55.62;101165.34;5033885;28;20207;-52
2022/12/12 03:22:04;;;;;;;38.60;22.63;;;1.00;74.00;;;3.82;55.05;101165.47;5034143;28;20218;-53
2022/12/12 03:24:41;;;;;;;41.30;23.07;;;1.00;73.70;;;3.80;54.71;101169.97;5034892;28;20603;-54
2022/12/12 03:27:17;;;;;;;39.17;22.70;;;1.00;73.60;;;3.71;55.35;101167.28;5033842;28;20253;-53
2022/12/12 03:29:53;;;;;;;42.27;22.90;;;0.90;73.40;;;3.62;55.10;101168.78;5033847;28;20261;-54
2022/12/12 03:32:27;;;;;;;37.33;21.47;;;0.90;73.50;;;3.54;55.41;101171.19;5033830;28;20182;-52
2022/12/12 03:35:01;;;;;;;39.70;22.93;;;0.80;73.50;;;3.53;55.73;101164.31;5040472;28;20264;-52
2022/12/12 03:37:34;;;;;;;40.30;23.13;;;0.80;74.10;;;3.51;55.95;101171.41;5053127;28;20196;-55
2022/12/12 03:40:09;;;;;;;42.73;23.40;;;0.70;74.00;;;3.46;55.98;101163.13;5053362;28;20300;-52
2022/12/12 03:42:43;;;;;;;43.43;23.10;;;0.70;74.10;;;3.42;56.03;101161.72;5053785;28;20187;-54
2022/12/12 03:45:19;;;;;;;41.70;22.37;;;0.70;74.20;;;3.39;56.31;101156.75;5064616;28;20221;-52
2022/12/12 03:47:53;;;;;;;43.60;23.80;;;0.70;74.50;;;3.46;56.56;101165.72;5057989;28;20206;-51
2022/12/12 03:50:24;;;;;;;38.83;20.97;;;0.70;75.60;;;3.49;56.17;101172.47;5053834;28;20284;-54
2022/12/12 03:53:00;;;;;;;39.27;23.13;;;0.70;75.40;;;3.50;56.25;101164.53;5053876;28;20335;-53
2022/12/12 03:55:35;;;;;;;42.67;24.13;;;0.70;75.20;;;3.57;57.03;101170.09;5053839;28;20197;-54
2022/12/12 03:58:10;;;;;;;41.33;22.97;;;0.70;76.40;;;3.66;56.74;101172.00;5043458;28;20752;-54
2022/12/12 04:00:42;;;;;;;40.20;22.40;;;0.80;76.20;;;3.69;56.01;101175.19;5033279;28;20509;-56
2022/12/12 04:03:20;;;;;;;40.17;21.93;;;0.90;75.70;;;3.73;56.03;101171.38;5033265;28;20278;-55
2022/12/12 04:15:02;;;;;;;39.40;23.60;;;1.10;75.50;;;3.92;56.37;101176.00;5033911;28;20179;-52
2022/12/12 04:17:40;;;;;;;39.10;23.07;;;1.10;75.40;;;3.98;56.38;101168.50;5033261;28;20273;-54
2022/12/12 04:23:20;;;;;;;41.73;23.77;;;1.30;75.10;;;4.14;55.43;101170.72;5033105;28;20199;-54
2022/12/12 04:29:01;;;;;;;45.20;23.93;;;1.50;74.70;;;4.30;55.53;101175.53;5036713;28;20640;-53
2022/12/12 04:31:34;;;;;;;40.43;23.50;;;1.50;74.20;;;4.37;55.62;101171.50;5046408;28;20198;-54
2022/12/12 04:34:11;;;;;;;38.27;21.50;;;1.60;73.80;;;4.43;55.52;101176.19;5057513;28;20176;-53
2022/12/12 04:36:42;;;;;;;40.73;22.03;;;1.70;73.40;;;4.52;55.25;101180.66;5056544;28;20218;-55
2022/12/12 04:39:13;;;;;;;40.47;22.77;;;1.80;73.50;;;4.62;54.91;101178.94;5061703;28;20215;-53
2022/12/12 04:41:45;;;;;;;38.67;22.27;;;1.90;73.30;;;4.64;54.57;101185.69;5062690;28;20226;-55
2022/12/12 04:44:16;;;;;;;40.23;23.20;;;1.90;72.60;;;4.63;53.04;101188.44;5059761;28;20281;-53
2022/12/12 04:46:48;;;;;;;38.73;22.13;;;1.90;71.60;;;4.55;52.55;101183.00;5045701;28;20194;-51
2022/12/12 04:49:21;;;;;;;37.17;20.73;;;1.80;70.60;;;4.44;53.19;101180.47;5036439;28;20207;-53
2022/12/12 04:51:54;;;;;;;36.10;21.50;;;1.70;69.90;;;4.34;53.15;101176.94;5036914;28;20207;-52
2022/12/12 04:54:31;;;;;;;39.47;21.40;;;1.60;70.10;;;4.24;53.05;101189.03;5036739;28;20180;-51
2022/12/12 04:57:06;;;;;;;36.20;20.77;;;1.50;70.40;;;4.16;53.57;101183.63;5037146;28;20241;-52
2022/12/12 04:59:34;;;;;;;40.07;22.27;;;1.40;70.70;;;4.08;53.03;101181.63;5056277;28;20682;-54
2022/12/12 05:02:13;;;;;;;38.47;22.50;;;1.30;70.80;;;3.97;53.49;101179.88;5056271;28;20246;-51
2022/12/12 05:04:48;;;;;;;38.83;22.70;;;1.10;71.20;;;3.89;53.22;101187.47;5056470;28;20193;-54
2022/12/12 05:07:26;;;;;;;35.07;20.90;;;1.10;71.60;;;3.82;53.52;101181.09;5056222;28;20248;-52
2022/12/12 05:09:55;;;;;;;41.67;22.50;;;1.00;71.70;;;3.78;53.59;101184.06;5071437;28;20681;-53
2022/12/12 05:12:24;;;;;;;40.83;23.13;;;0.90;71.50;;;3.71;54.02;101183.69;5056140;28;20222;-52
2022/12/12 05:14:51;;;;;;;40.10;22.33;;;0.90;72.10;;;3.67;53.87;101182.28;5056307;28;20240;-52
2022/12/12 05:17:29;;;;;;;38.93;23.03;;;0.80;72.10;;;3.60;54.10;101188.91;5056345;28;20195;-55
2022/12/12 05:19:57;;;;;;;46.27;23.90;;;0.70;71.90;;;3.54;54.65;101189.41;5056321;28;20267;-52
2022/12/12 05:22:24;;;;;;;38.27;21.50;;;0.70;72.40;;;3.54;54.65;101186.78;5056074;28;20196;-52
2022/12/12 05:24:51;;;;;;;41.37;23.20;;;0.70;73.00;;;3.51;54.85;101187.03;5055908;28;20245;-53
2022/12/12 05:27:18;;;;;;;41.03;22.60;;;0.70;73.00;;;3.48;54.78;101187.25;5056164;28;20204;-54
2022/12/12 05:29:46;;;;;;;46.80;23.17;;;0.60;73.00;;;3.47;54.66;101193.38;5055926;28;20211;-54
2022/12/12 05:32:13;;;;;;;40.50;22.27;;;0.60;73.40;;;3.46;54.61;101194.34;5056300;28;20634;-52
2022/12/12 05:34:40;;;;;;;41.63;22.73;;;0.60;73.10;;;3.46;54.83;101190.91;5056166;28;20299;-53
2022/12/12 05:37:07;;;;;;;38.10;21.70;;;0.60;72.90;;;3.44;54.86;101191.03;5055793;28;20246;-54
2022/12/12 05:39:35;;;;;;;36.40;22.47;;;0.60;73.00;;;3.42;54.54;101182.53;5054312;28;20702;-54
2022/12/12 05:42:02;;;;;;;45.23;24.33;;;0.50;73.00;;;3.42;54.76;101192.94;5054161;28;20198;-52
2022/12/12 05:44:29;;;;;;;42.00;23.17;;;0.50;73.70;;;3.44;55.02;101185.84;5055214;28;20525;-54
2022/12/12 05:46:57;;;;;;;39.03;21.57;;;0.50;74.00;;;3.47;54.99;101188.19;5042738;28;20203;-54
2022/12/12 05:49:28;;;;;;;41.03;22.03;;;0.50;73.60;;;3.46;54.89;101189.16;5035624;28;20561;-56
2022/12/12 05:51:58;;;;;;;35.87;21.30;;;0.50;73.30;;;3.45;54.94;101190.06;5035745;28;20246;-53
2022/12/12 05:54:25;;;;;;;41.80;22.70;;;0.50;73.20;;;3.45;54.77;101195.28;5047664;28;20207;-55
2022/12/12 05:56:52;;;;;;;38.63;22.07;;;0.60;73.40;;;3.43;54.58;101199.78;5055668;28;20229;-50
2022/12/12 05:59:19;;;;;;;41.47;21.73;;;0.50;73.10;;;3.41;54.55;101191.28;5055372;28;20619;-51
2022/12/12 06:01:46;;;;;;;41.87;22.97;;;0.50;73.10;;;3.39;54.74;101193.16;5055637;28;20253;-52
2022/12/12 06:04:15;;;;;;;43.63;23.63;;;0.50;73.10;;;3.34;54.48;101201.31;5054920;28;20187;-54
2022/12/12 06:06:42;;;;;;;38.73;22.17;;;0.40;73.20;;;3.32;55.03;101202.38;5070366;28;20220;-54
2022/12/12 06:09:09;;;;;;;42.37;23.93;;;0.40;73.70;;;3.33;55.63;101201.41;5058854;28;20211;-55
2022/12/12 06:11:36;;;;;;;43.47;21.73;;;0.40;74.20;;;3.34;55.51;101205.69;5071633;28;20257;-52
2022/12/12 06:14:03;;;;;;;39.57;21.83;;;0.40;74.30;;;3.38;55.57;101212.31;5063401;28;20195;-56
2022/12/12 06:16:30;;;;;;;42.57;23.93;;;0.40;74.40;;;3.40;55.69;101211.25;5064056;28;20330;-56
2022/12/12 06:18:57;;;;;;;41.30;23.13;;;0.40;74.70;;;3.45;55.75;101210.88;5076568;28;20207;-55
2022/12/12 06:21:26;;;;;;;35.43;22.07;;;0.50;74.70;;;3.48;54.77;101209.81;5063033;28;20196;-56
2022/12/12 06:23:53;;;;;;;42.30;23.03;;;0.50;73.90;;;3.46;54.99;101207.34;5055083;28;20215;-57
2022/12/12 06:26:21;;;;;;;38.27;20.93;;;0.50;73.40;;;3.47;55.19;101205.59;5043846;28;20267;-57
2022/12/12 06:28:48;;;;;;;42.37;22.10;;;0.50;73.60;;;3.46;54.81;101204.75;5044771;28;20215;-56
2022/12/12 06:31:16;;;;;;;40.43;23.50;;;0.60;73.80;;;3.45;55.41;101208.28;5046836;28;20198;-57
2022/12/12 06:33:44;;;;;;;36.50;21.20;;;0.50;73.60;;;3.45;54.74;101210.88;5044391;28;20200;-56
2022/12/12 06:36:15;;;;;;;37.43;20.83;;;0.50;73.50;;;3.45;54.79;101218.69;5056525;28;20231;-56
2022/12/12 06:38:43;;;;;;;41.13;22.27;;;0.50;73.60;;;3.44;54.56;101214.44;5065446;28;20218;-53
2022/12/12 06:41:13;;;;;;;44.47;23.73;;;0.50;73.50;;;3.43;54.78;101220.59;5062820;28;20217;-56
2022/12/12 06:43:41;;;;;;;39.13;22.17;;;0.50;73.50;;;3.40;54.92;101213.84;5062574;28;20219;-56
2022/12/12 06:46:15;;;;;;;37.57;21.30;;;0.50;73.60;;;3.40;55.25;101208.63;5057540;28;20194;-55
2022/12/12 06:48:43;;;;;;;38.83;20.63;;;0.50;73.80;;;3.42;54.74;101224.97;5040706;28;20212;-55
2022/12/12 06:51:16;;;;;;;39.67;22.93;;;0.50;74.00;;;3.42;54.91;101221.56;5052874;28;20268;-52
2022/12/12 06:53:44;;;;;;;36.87;21.23;;;0.50;74.00;;;3.45;55.36;101218.69;5056863;28;20227;-54
2022/12/12 06:56:14;;;;;;;38.77;22.07;;;0.50;74.40;;;3.47;55.21;101216.78;5054621;28;20226;-54
2022/12/12 06:58:42;;;;;;;38.23;21.70;;;0.60;74.60;;;3.51;55.18;101218.25;5058014;28;20228;-54
2022/12/12 07:01:11;;;;;;;42.37;23.03;;;0.60;74.30;;;3.51;54.90;101218.25;5056460;28;20199;-56
2022/12/12 07:03:39;;;;;;;52.63;26.53;;;0.60;74.00;;;3.52;54.82;101219.88;5057918;28;20241;-54
2022/12/12 07:06:06;;;;;;;39.07;23.30;;;0.60;73.90;;;3.50;55.10;101226.16;5057273;28;20187;-55
2022/12/12 07:08:35;;;;;;;34.73;20.43;;;0.60;73.70;;;3.50;55.07;101226.16;5054820;28;20223;-54
2022/12/12 07:11:07;;;;;;;43.67;23.63;;;0.60;73.90;;;3.48;54.83;101226.28;5057085;28;20192;-55
2022/12/12 07:13:35;;;;;;;39.83;23.03;;;0.60;73.90;;;3.47;54.92;101229.81;5055561;28;20325;-54
2022/12/12 07:16:02;;;;;;;50.07;26.30;;;0.60;73.90;;;3.49;55.68;101225.34;5046264;28;20227;-56
2022/12/12 07:18:29;;;;;;;38.63;23.77;;;0.60;75.20;;;3.54;55.92;101232.78;5034781;28;20215;-54
2022/12/12 07:20:56;;;;;;;40.47;21.83;;;0.60;74.90;;;3.58;55.65;101226.41;5050524;28;20195;-53
2022/12/12 07:23:24;;;;;;;45.57;24.33;;;0.70;74.60;;;3.57;54.91;101229.94;5054970;28;20262;-54
2022/12/12 07:25:51;;;;;;;44.37;25.70;;;0.70;74.10;;;3.52;55.03;101230.28;5055392;28;20166;-53
2022/12/12 07:28:45;;;;;;;45.17;24.07;;;0.70;73.50;;;3.40;55.60;101231.22;5056281;28;20300;-52
2022/12/12 07:31:16;;;;;;;40.17;22.93;;;0.60;73.40;;;3.41;55.27;101245.91;5055555;28;20216;-52
2022/12/12 07:33:43;;;;;;;47.07;25.13;;;0.60;73.80;;;3.42;55.88;101235.38;5056068;28;20195;-54
2022/12/12 07:36:11;;;;;;;47.30;24.47;;;0.60;74.20;;;3.45;55.50;101233.50;5056094;28;20217;-52
2022/12/12 07:38:39;;;;;;;47.20;23.43;;;0.60;74.20;;;3.46;54.98;101235.97;5055614;28;20215;-54
2022/12/12 07:41:10;;;;;;;45.67;24.47;;;0.60;74.20;;;3.47;54.68;101240.22;5057588;28;20247;-52
2022/12/12 07:43:41;;;;;;;44.93;25.47;;;0.60;73.90;;;3.43;55.31;101238.78;5055517;28;20188;-52
2022/12/12 07:46:18;;;;;;;45.90;24.63;;;0.60;73.70;;;3.37;54.41;101247.09;5054227;28;20195;-52
2022/12/12 07:48:46;;;;;;;44.20;25.07;;;0.50;73.40;;;3.30;54.63;101245.88;5053613;28;20594;-51
2022/12/12 07:51:14;;;;;;;49.33;24.57;;;0.50;73.10;;;3.29;54.90;101249.41;5053967;28;20195;-52
2022/12/12 07:53:41;;;;;;;50.00;24.83;;;0.50;73.90;;;3.29;55.26;101249.41;5053550;28;20197;-53
2022/12/12 07:56:11;;;;;;;56.50;29.03;;;0.40;73.70;;;3.25;55.03;101248.84;5054422;28;20574;-54
2022/12/12 07:58:38;;;;;;;42.43;23.47;;;0.40;73.60;;;3.24;54.94;101251.53;5053801;28;20207;-55
2022/12/12 08:01:14;;;;;;;43.83;23.07;;;0.40;73.40;;;3.18;54.76;101252.00;5054485;28;20200;-54
2022/12/12 08:03:42;;;;;;;42.07;22.83;;;0.40;73.20;;;3.15;54.94;101253.06;5053900;28;20184;-52
2022/12/12 08:06:09;;;;;;;42.77;21.13;;;0.40;73.20;;;3.13;55.11;101254.94;5054193;28;20187;-53
2022/12/12 08:08:36;;;;;;;45.43;24.43;;;0.30;73.10;;;3.13;54.87;101257.56;5053200;28;20213;-52
2022/12/12 08:11:06;;;;;;;48.03;23.30;;;0.30;73.30;;;3.16;55.18;101259.09;5054512;28;20643;-52
2022/12/12 08:13:35;;;;;;;48.50;26.40;;;0.30;73.80;;;3.21;55.37;101251.78;5054917;28;20276;-55
2022/12/12 08:16:05;;;;;;;40.77;23.40;;;0.30;74.20;;;3.23;55.17;101250.69;5054450;28;20311;-54
2022/12/12 08:18:34;;;;;;;44.97;23.63;;;0.30;74.10;;;3.29;55.39;101249.41;5053767;28;20241;-53
2022/12/12 08:21:01;;;;;;;44.80;26.17;;;0.40;74.60;;;3.40;55.44;101252.03;5053529;28;20239;-52
2022/12/12 08:23:28;;;;;;;47.87;26.97;;;0.40;74.80;;;3.48;55.12;101254.88;5053349;28;20198;-53
2022/12/12 08:25:55;;;;;;;50.67;27.23;;;0.50;74.50;;;3.55;54.92;101258.69;5053501;28;20195;-52
2022/12/12 08:28:22;;;;;;;53.20;26.83;;;0.60;74.30;;;3.62;55.08;101262.47;5053345;28;20394;-54
2022/12/12 08:30:50;;;;;;;40.83;24.77;;;0.60;74.40;;;3.70;55.15;101260.13;5051947;28;20725;-55
2022/12/12 08:33:17;;;;;;;42.93;23.57;;;0.70;74.10;;;3.76;54.39;101259.63;5053112;28;20195;-52
2022/12/12 08:35:46;;;;;;;45.53;25.17;;;0.80;73.70;;;3.82;54.86;101264.38;5051463;28;20195;-54
2022/12/12 08:38:13;;;;;;;47.07;25.97;;;0.80;73.60;;;3.87;54.16;101262.25;5052064;28;20250;-53
2022/12/12 08:40:40;;;;;;;44.97;25.50;;;0.90;73.40;;;3.93;54.45;101260.94;5052777;28;20191;-53
2022/12/12 08:43:08;;;;;;;39.17;23.07;;;0.90;73.30;;;3.96;53.70;101264.16;5053129;28;20210;-52
2022/12/12 08:45:36;;;;;;;39.80;23.13;;;1.00;73.10;;;3.96;53.49;101263.31;5052921;28;20197;-53
2022/12/12 08:48:05;;;;;;;41.57;21.83;;;1.00;72.70;;;3.93;53.60;101261.78;5053172;28;20222;-55
2022/12/12 08:50:32;;;;;;;38.83;21.80;;;1.00;72.60;;;3.92;53.32;101265.31;5053086;28;20242;-55
2022/12/12 08:53:01;;;;;;;41.10;23.80;;;1.00;72.50;;;3.87;53.00;101264.88;5053502;28;20265;-55
2022/12/12 08:55:29;;;;;;;41.30;22.47;;;1.00;72.30;;;3.81;54.01;101267.94;5052799;28;20263;-55
2022/12/12 08:57:56;;;;;;;65.83;37.67;;;0.90;72.20;;;3.83;54.47;101265.19;5053229;28;20220;-53
2022/12/12 09:00:23;;;;;;;46.23;26.23;;;0.90;72.70;;;3.84;54.28;101259.88;5053673;28;20248;-54
2022/12/12 09:02:50;;;;;;;42.70;24.03;;;0.90;73.10;;;3.92;54.93;101265.31;5052565;28;20339;-53
2022/12/12 09:05:17;;;;;;;43.53;24.63;;;1.00;73.80;;;4.02;54.85;101271.47;5053533;28;20230;-54
2022/12/12 09:07:44;;;;;;;41.83;24.27;;;1.00;73.60;;;4.09;54.07;101267.44;5053037;28;20215;-56
2022/12/12 09:10:13;;;;;;;39.83;23.83;;;1.10;73.50;;;4.17;54.00;101268.63;5053864;28;20246;-55
2022/12/12 09:12:40;;;;;;;40.07;23.40;;;1.20;73.20;;;4.16;53.08;101277.38;5053720;28;20194;-52
2022/12/12 09:15:09;;;;;;;37.10;23.10;;;1.20;72.60;;;4.15;53.58;101286.13;5056108;28;20204;-54
2022/12/12 09:17:36;;;;;;;36.50;22.50;;;1.20;72.30;;;4.16;53.75;101277.38;5056513;28;20701;-53
2022/12/12 09:20:05;;;;;;;42.43;23.83;;;1.20;72.40;;;4.20;54.17;101278.78;5056821;28;20214;-53
2022/12/12 09:22:32;;;;;;;36.43;21.30;;;1.20;72.50;;;4.26;54.31;101283.50;5056741;28;20195;-53
2022/12/12 09:24:59;;;;;;;39.07;22.83;;;1.30;72.90;;;4.35;53.84;101275.00;5057796;28;20255;-53
2022/12/12 09:27:28;;;;;;;35.40;22.27;;;1.30;73.00;;;4.40;53.11;101275.44;5056520;28;20218;-54
2022/12/12 09:29:55;;;;;;;36.73;22.33;;;1.30;72.60;;;4.45;53.78;101281.13;5050821;28;20216;-52
2022/12/12 09:32:23;;;;;;;36.13;22.03;;;1.40;72.80;;;4.49;53.16;101279.94;5048690;28;20197;-53
2022/12/12 09:34:51;;;;;;;39.10;22.37;;;1.40;72.30;;;4.45;52.83;101278.50;5056241;28;20218;-53
2022/12/12 09:37:18;;;;;;;36.07;21.70;;;1.50;71.60;;;4.41;53.77;101277.09;5035718;28;20270;-52
2022/12/12 09:39:45;;;;;;;37.60;21.37;;;1.50;71.70;;;4.43;53.14;101270.81;5035505;28;20543;-53
2022/12/12 09:42:22;;;;;;;40.70;23.87;;;1.50;71.80;;;4.48;53.32;101278.28;5036260;28;20213;-51
2022/12/12 09:44:55;;;;;;;37.37;21.80;;;1.50;72.00;;;4.57;54.14;101280.13;5036282;28;20184;-52
2022/12/12 09:47:35;;;;;;;37.97;20.40;;;1.60;72.40;;;4.68;53.93;101285.34;5053654;28;20443;-53
2022/12/12 09:50:14;;;;;;;36.57;21.37;;;1.60;72.50;;;4.76;52.78;101283.75;5055814;28;20280;-56
2022/12/12 09:52:43;;;;;;;35.90;20.60;;;1.70;72.30;;;4.81;53.13;101286.00;5055996;28;20191;-53
2022/12/12 09:55:32;;;;;;;35.57;20.67;;;1.70;71.90;;;4.82;52.16;101287.66;5056011;28;20214;-52
2022/12/12 09:58:13;;;;;;;37.13;20.33;;;1.80;71.60;;;4.87;52.92;101290.72;5037333;28;20229;-56
2022/12/12 10:00:48;;;;;;;30.67;18.57;;;1.80;71.40;;;4.92;52.72;101282.53;5035627;28;20187;-53
2022/12/12 10:03:43;;;;;;;45.27;28.37;;;1.90;71.50;;;4.98;52.14;101288.06;5035439;28;20271;-54
2022/12/12 10:06:13;;;;;;;46.83;28.17;;;1.90;71.70;;;5.09;52.10;101290.63;5038650;28;20194;-53
2022/12/12 10:09:23;;;;;;;45.50;27.50;;;2.00;71.80;;;5.20;52.87;101280.16;5054926;28;20250;-52
2022/12/12 10:11:53;;;;;;;32.33;19.67;;;2.10;71.60;;;5.32;52.96;101276.53;5055399;28;20199;-51
2022/12/12 10:14:33;;;;;;;31.27;20.33;;;2.20;71.50;;;5.39;52.30;101277.66;5054469;28;20226;-53
2022/12/12 10:17:07;;;;;;;31.60;18.63;;;2.30;71.50;;;5.46;52.27;101284.03;5035529;28;20242;-53
2022/12/12 10:19:47;;;;;;;29.63;17.90;;;2.30;71.20;;;5.47;51.82;101274.38;5035119;28;20231;-53
2022/12/12 10:22:27;;;;;;;26.13;17.50;;;2.40;70.50;;;5.45;50.96;101277.13;5035205;28;20182;-53
2022/12/12 10:25:05;;;;;;;31.33;18.37;;;2.50;69.80;;;5.43;50.17;101273.00;5039647;28;20195;-55
2022/12/12 10:27:32;;;;;;;28.33;18.40;;;2.40;69.40;;;5.32;50.47;101281.75;5040069;28;20234;-55
2022/12/12 10:30:14;;;;;;;29.60;18.27;;;2.50;68.70;;;5.32;51.71;101281.75;5038607;28;20621;-54
2022/12/12 10:33:03;;;;;;;28.07;16.83;;;2.50;69.20;;;5.36;50.86;101283.13;5035272;28;20195;-54
2022/12/12 10:35:46;;;;;;;25.67;16.30;;;2.50;69.40;;;5.43;51.16;101279.06;5042147;28;20593;-54
2022/12/12 10:38:41;;;;;;;30.27;16.70;;;2.50;69.50;;;5.47;51.40;101280.44;5055334;28;20298;-54
2022/12/12 10:41:22;;;;;;;28.67;17.73;;;2.60;69.40;;;5.51;50.45;101274.97;5053701;28;20299;-53
2022/12/12 10:44:00;;;;;;;27.10;16.60;;;2.60;69.30;;;5.55;50.96;101271.13;5055131;28;20236;-53
2022/12/12 10:46:37;;;;;;;23.27;14.93;;;2.60;69.40;;;5.59;50.45;101275.13;5055293;28;20297;-55
2022/12/12 10:49:15;;;;;;;26.53;16.00;;;2.70;68.90;;;5.63;51.09;101269.56;5058415;28;20209;-52
2022/12/12 10:51:45;;;;;;;28.87;17.73;;;2.70;68.60;;;5.69;50.95;101269.03;5055050;28;20182;-53
2022/12/12 10:54:19;;;;;;;24.80;15.43;;;2.80;68.80;;;5.76;50.75;101277.16;5055104;28;20638;-54